Time;durP1;ratioP1;P1;durP2;ratioP2;P2;SDS_P1;SDS_P2;PMS_P1;PMS_P2;Temp;Humidity;BMP_temperature;BMP_pressure;BME280_temperature;BME280_humidity;BME280_pressure;Samples;Min_cycle;Max_cycle;Signal;HPM_P1;HPM_P2
2021/03/08 00:01:04;;;;;;;23.63;13.65;;;;;;;;;;4993276;28;20043;-86
2021/03/08 00:03:30;;;;;;;25.60;14.70;;;;;;;;;;4983607;28;20046;-86
2021/03/08 00:05:56;;;;;;;22.75;13.50;;;;;;;;;;4984857;28;20055;-86
2021/03/08 00:08:22;;;;;;;23.98;13.75;;;;;;;;;;4966118;28;20123;-87
2021/03/08 00:10:49;;;;;;;22.63;13.98;;;;;;;;;;5009821;28;20073;-86
2021/03/08 00:13:15;;;;;;;21.75;13.15;;;;;;;;;;4995262;28;20513;-86
2021/03/08 00:15:41;;;;;;;20.52;12.80;;;;;;;;;;4995092;28;20046;-87
2021/03/08 00:18:08;;;;;;;21.83;12.18;;;;;;;;;;4995418;28;20117;-88
2021/03/08 00:20:34;;;;;;;22.08;13.23;;;;;;;;;;4994974;28;20050;-87
2021/03/08 00:23:00;;;;;;;19.67;12.02;;;;;;;;;;4998041;28;20054;-87
2021/03/08 00:25:28;;;;;;;24.70;12.70;;;;;;;;;;4994801;28;20113;-87
2021/03/08 00:27:55;;;;;;;20.70;13.00;;;;;;;;;;4994428;28;20047;-87
2021/03/08 00:30:22;;;;;;;22.15;14.65;;;;;;;;;;4995273;28;20046;-88
2021/03/08 00:32:48;;;;;;;22.25;13.80;;;;;;;;;;4995206;28;20434;-88
2021/03/08 00:35:15;;;;;;;19.90;12.45;;;;;;;;;;4993986;28;20054;-87
2021/03/08 00:37:43;;;;;;;20.80;12.48;;;;;;;;;;5006706;28;20053;-87
2021/03/08 00:40:11;;;;;;;22.60;13.98;;;;;;;;;;4994591;28;20076;-87
2021/03/08 00:42:39;;;;;;;21.30;12.60;;;;;;;;;;4995273;28;20054;-87
2021/03/08 00:45:07;;;;;;;24.52;13.82;;;;;;;;;;4997154;28;20055;-87
2021/03/08 00:47:33;;;;;;;23.08;12.80;;;;;;;;;;4977961;28;20455;-87
2021/03/08 00:49:59;;;;;;;22.58;13.15;;;;;;;;;;4997588;28;20096;-86
2021/03/08 00:52:25;;;;;;;23.08;13.45;;;;;;;;;;4997700;28;20046;-87
2021/03/08 00:54:51;;;;;;;21.15;12.63;;;;;;;;;;5011672;28;20522;-87
2021/03/08 00:57:17;;;;;;;24.45;13.48;;;;;;;;;;4995565;28;20058;-86
2021/03/08 00:59:44;;;;;;;21.50;12.65;;;;;;;;;;4994198;28;20046;-87
2021/03/08 01:02:12;;;;;;;25.65;14.15;;;;;;;;;;4993861;28;20052;-87
2021/03/08 01:04:38;;;;;;;22.67;13.43;;;;;;;;;;4994527;28;20050;-86
2021/03/08 01:07:04;;;;;;;22.95;14.32;;;;;;;;;;4995613;28;20058;-86
2021/03/08 01:09:30;;;;;;;26.95;14.73;;;;;;;;;;4994699;28;20483;-86
2021/03/08 01:11:57;;;;;;;23.65;14.07;;;;;;;;;;4994964;28;20052;-86
2021/03/08 01:14:23;;;;;;;24.60;13.52;;;;;;;;;;5003173;28;20050;-84
2021/03/08 01:16:49;;;;;;;24.73;14.88;;;;;;;;;;5015996;28;20065;-85
2021/03/08 01:19:16;;;;;;;24.95;14.40;;;;;;;;;;4982060;28;20050;-86
2021/03/08 01:21:43;;;;;;;22.40;14.07;;;;;;;;;;5008675;28;20134;-86
2021/03/08 01:24:10;;;;;;;22.25;13.15;;;;;;;;;;4994013;28;20050;-86
2021/03/08 01:26:36;;;;;;;23.88;13.18;;;;;;;;;;4995675;28;20057;-86
2021/03/08 01:29:02;;;;;;;26.67;14.50;;;;;;;;;;4994054;28;20050;-86
2021/03/08 01:31:29;;;;;;;26.38;14.75;;;;;;;;;;4994092;28;20062;-86
2021/03/08 01:33:55;;;;;;;25.02;13.52;;;;;;;;;;4993506;28;20054;-86
2021/03/08 01:36:22;;;;;;;25.13;14.52;;;;;;;;;;4994778;28;20050;-85
2021/03/08 01:38:48;;;;;;;22.70;13.15;;;;;;;;;;4995008;28;20092;-86
2021/03/08 01:41:15;;;;;;;21.52;13.00;;;;;;;;;;4981458;28;20518;-86
2021/03/08 01:43:41;;;;;;;24.70;12.60;;;;;;;;;;4975653;28;20400;-86
2021/03/08 01:46:07;;;;;;;25.55;13.23;;;;;;;;;;4958942;28;20407;-86
2021/03/08 01:48:34;;;;;;;21.05;12.68;;;;;;;;;;4943513;28;20395;-86
2021/03/08 01:51:00;;;;;;;25.33;14.50;;;;;;;;;;4976166;28;20487;-86
2021/03/08 01:53:29;;;;;;;25.38;13.18;;;;;;;;;;4959296;28;20479;-86
2021/03/08 01:55:55;;;;;;;25.17;14.95;;;;;;;;;;4976922;28;20043;-86
2021/03/08 01:58:21;;;;;;;26.73;15.23;;;;;;;;;;4976781;28;20483;-85
2021/03/08 02:00:47;;;;;;;23.80;13.90;;;;;;;;;;4986819;28;20065;-86
2021/03/08 02:03:14;;;;;;;23.73;13.63;;;;;;;;;;5035773;23;20049;-87
2021/03/08 02:05:42;;;;;;;22.00;12.50;;;;;;;;;;5054155;28;20103;-87
2021/03/08 02:08:10;;;;;;;23.10;13.57;;;;;;;;;;5053411;28;20053;-87
2021/03/08 02:10:40;;;;;;;22.55;12.93;;;;;;;;;;5035988;28;20045;-87
2021/03/08 02:13:26;;;;;;;24.77;12.55;;;;;;;;;;5053734;28;20554;-87
2021/03/08 02:15:59;;;;;;;23.65;12.93;;;;;;;;;;5026948;28;20056;-87
2021/03/08 02:18:36;;;;;;;22.60;12.82;;;;;;;;;;5020968;28;20072;-88
2021/03/08 02:21:30;;;;;;;24.38;13.38;;;;;;;;;;5023933;28;20053;-87
2021/03/08 02:24:42;;;;;;;20.65;12.57;;;;;;;;;;5039599;28;20390;-87
2021/03/08 02:27:17;;;;;;;21.98;12.88;;;;;;;;;;5029288;28;20045;-87
2021/03/08 02:29:57;;;;;;;22.65;12.40;;;;;;;;;;5057958;28;20049;-88
2021/03/08 02:32:29;;;;;;;21.83;12.60;;;;;;;;;;5046058;28;20053;-88
2021/03/08 02:35:00;;;;;;;23.75;14.43;;;;;;;;;;5023707;28;20056;-87
2021/03/08 02:37:28;;;;;;;27.25;15.05;;;;;;;;;;5057850;28;20514;-87
2021/03/08 02:40:01;;;;;;;20.38;12.15;;;;;;;;;;5039891;28;20099;-87
2021/03/08 02:42:35;;;;;;;26.23;15.73;;;;;;;;;;5057708;28;20428;-88
2021/03/08 02:45:04;;;;;;;26.08;14.13;;;;;;;;;;5058569;28;20041;-88
2021/03/08 02:47:32;;;;;;;25.92;14.27;;;;;;;;;;5042819;28;20504;-88
2021/03/08 02:50:00;;;;;;;22.05;13.18;;;;;;;;;;5059582;28;20052;-88
2021/03/08 02:52:28;;;;;;;27.65;15.15;;;;;;;;;;5061780;28;20049;-88
2021/03/08 02:54:55;;;;;;;27.80;15.25;;;;;;;;;;5041103;28;20053;-87
2021/03/08 02:57:25;;;;;;;23.83;13.82;;;;;;;;;;5038942;28;20394;-87
2021/03/08 02:59:52;;;;;;;24.40;14.63;;;;;;;;;;5056992;28;20052;-87
2021/03/08 03:02:20;;;;;;;20.27;12.75;;;;;;;;;;5038965;28;20049;-88
2021/03/08 03:04:48;;;;;;;21.42;12.48;;;;;;;;;;5056665;28;20116;-87
2021/03/08 03:07:16;;;;;;;23.33;12.48;;;;;;;;;;5056914;28;20049;-87
2021/03/08 03:09:43;;;;;;;22.05;14.02;;;;;;;;;;5056559;28;20681;-87
2021/03/08 03:12:11;;;;;;;21.98;12.85;;;;;;;;;;5056379;28;20053;-87
2021/03/08 03:14:38;;;;;;;22.02;12.25;;;;;;;;;;5056020;28;20095;-87
2021/03/08 03:17:07;;;;;;;18.95;11.85;;;;;;;;;;5056688;28;20079;-87
2021/03/08 03:19:36;;;;;;;22.90;13.65;;;;;;;;;;5056565;28;20064;-87
2021/03/08 03:22:04;;;;;;;23.58;14.13;;;;;;;;;;5057155;28;20412;-87
2021/03/08 03:24:31;;;;;;;22.65;12.88;;;;;;;;;;5022891;28;20053;-87
2021/03/08 03:26:59;;;;;;;24.23;14.27;;;;;;;;;;5056878;28;20049;-87
2021/03/08 03:29:27;;;;;;;25.83;15.80;;;;;;;;;;5056492;28;20116;-87
2021/03/08 03:31:53;;;;;;;25.77;13.98;;;;;;;;;;5056501;28;20041;-87
2021/03/08 03:34:20;;;;;;;27.05;13.70;;;;;;;;;;5039019;28;20057;-88
2021/03/08 03:36:49;;;;;;;25.05;14.35;;;;;;;;;;5056703;28;20098;-87
2021/03/08 03:39:16;;;;;;;24.83;13.82;;;;;;;;;;5056652;28;20079;-87
2021/03/08 03:41:42;;;;;;;25.02;14.32;;;;;;;;;;5057332;28;20069;-87
2021/03/08 03:44:09;;;;;;;25.92;13.82;;;;;;;;;;5056395;28;20916;-87
2021/03/08 03:46:38;;;;;;;22.48;12.55;;;;;;;;;;5038892;28;20057;-87
2021/03/08 03:49:05;;;;;;;25.42;14.18;;;;;;;;;;5038491;28;20055;-88
2021/03/08 03:51:31;;;;;;;25.23;15.02;;;;;;;;;;5038250;28;20080;-87
2021/03/08 03:53:57;;;;;;;27.45;14.13;;;;;;;;;;5022161;28;20045;-87
2021/03/08 03:56:26;;;;;;;23.60;12.68;;;;;;;;;;5056189;28;20048;-87
2021/03/08 03:58:56;;;;;;;24.52;14.02;;;;;;;;;;5038599;28;20447;-87
2021/03/08 04:01:24;;;;;;;21.92;13.45;;;;;;;;;;5054828;28;20103;-87
2021/03/08 04:03:57;;;;;;;26.73;13.77;;;;;;;;;;5058465;28;20408;-88
2021/03/08 04:06:24;;;;;;;21.05;12.40;;;;;;;;;;5076329;28;20051;-88
2021/03/08 04:08:53;;;;;;;26.58;14.65;;;;;;;;;;5075320;28;20048;-87
2021/03/08 04:11:20;;;;;;;20.52;11.52;;;;;;;;;;5075815;28;20720;-88
2021/03/08 04:13:48;;;;;;;25.45;13.77;;;;;;;;;;5076641;28;20048;-88
2021/03/08 04:16:15;;;;;;;24.50;14.20;;;;;;;;;;5058984;28;20040;-88
2021/03/08 04:18:41;;;;;;;27.20;14.23;;;;;;;;;;5059031;28;20048;-88
2021/03/08 04:21:08;;;;;;;24.73;13.95;;;;;;;;;;5059182;28;20053;-88
2021/03/08 04:23:34;;;;;;;25.30;13.40;;;;;;;;;;5059637;28;20135;-87
2021/03/08 04:26:01;;;;;;;26.33;13.15;;;;;;;;;;5059242;28;20483;-88
2021/03/08 04:28:28;;;;;;;24.55;13.45;;;;;;;;;;5059595;28;20049;-88
2021/03/08 04:30:55;;;;;;;21.70;12.85;;;;;;;;;;5039972;28;20040;-88
2021/03/08 04:33:22;;;;;;;26.73;15.50;;;;;;;;;;5047171;28;20049;-89
2021/03/08 04:35:48;;;;;;;27.45;14.57;;;;;;;;;;5054378;28;20053;-88
2021/03/08 04:38:15;;;;;;;23.70;13.80;;;;;;;;;;5038094;28;20389;-88
2021/03/08 04:40:41;;;;;;;24.60;13.45;;;;;;;;;;5037926;28;20049;-88
2021/03/08 04:43:08;;;;;;;24.42;14.30;;;;;;;;;;5037358;28;20049;-88
2021/03/08 04:45:34;;;;;;;23.70;13.73;;;;;;;;;;5055091;28;20147;-86
2021/03/08 04:48:03;;;;;;;27.10;14.88;;;;;;;;;;5037169;28;20037;-86
2021/03/08 04:50:30;;;;;;;22.98;12.65;;;;;;;;;;5054842;28;20509;-89
2021/03/08 04:52:57;;;;;;;27.60;15.70;;;;;;;;;;5036524;28;20048;-88
2021/03/08 04:55:26;;;;;;;28.02;14.45;;;;;;;;;;5054844;28;20052;-89
2021/03/08 04:57:52;;;;;;;26.38;13.13;;;;;;;;;;5054729;28;20049;-88
2021/03/08 05:00:19;;;;;;;23.02;12.65;;;;;;;;;;5036688;28;20097;-88
2021/03/08 05:02:46;;;;;;;24.60;14.63;;;;;;;;;;5054485;28;20041;-88
2021/03/08 05:05:14;;;;;;;26.02;14.48;;;;;;;;;;5036825;28;20045;-86
2021/03/08 05:07:42;;;;;;;27.05;14.93;;;;;;;;;;5036665;28;20064;-88
2021/03/08 05:10:11;;;;;;;22.60;12.55;;;;;;;;;;5037074;28;20049;-87
2021/03/08 05:12:40;;;;;;;24.58;12.15;;;;;;;;;;5036280;28;20048;-85
2021/03/08 05:15:09;;;;;;;21.65;12.10;;;;;;;;;;5053384;28;20402;-88
2021/03/08 05:17:36;;;;;;;25.48;12.88;;;;;;;;;;5037028;28;20057;-86
2021/03/08 05:20:08;;;;;;;23.98;13.85;;;;;;;;;;5037115;28;20045;-88
2021/03/08 05:22:37;;;;;;;24.10;13.57;;;;;;;;;;5045135;28;20046;-88
2021/03/08 05:25:05;;;;;;;22.63;11.30;;;;;;;;;;5037916;28;20055;-86
2021/03/08 05:27:34;;;;;;;25.33;12.73;;;;;;;;;;5040005;28;20386;-87
2021/03/08 05:30:03;;;;;;;20.20;11.88;;;;;;;;;;5061281;28;20053;-86
2021/03/08 05:32:35;;;;;;;23.85;12.38;;;;;;;;;;5052871;28;20049;-87
2021/03/08 05:35:02;;;;;;;24.30;13.40;;;;;;;;;;5027999;28;21642;-86
2021/03/08 05:37:29;;;;;;;23.42;13.02;;;;;;;;;;5033955;28;20061;-87
2021/03/08 05:39:59;;;;;;;26.95;13.48;;;;;;;;;;5052427;28;20040;-87
2021/03/08 05:42:29;;;;;;;25.13;12.60;;;;;;;;;;5048249;28;20120;-87
2021/03/08 05:45:00;;;;;;;25.77;13.40;;;;;;;;;;5033994;28;20049;-86
2021/03/08 05:48:14;;;;;;;27.75;15.20;;;;;;;;;;5033213;28;20063;-87
2021/03/08 05:51:03;;;;;;;24.85;12.90;;;;;;;;;;5005564;28;20049;-87
2021/03/08 05:53:46;;;;;;;28.83;17.02;;;;;;;;;;5024756;28;20080;-86
2021/03/08 05:56:20;;;;;;;26.35;15.43;;;;;;;;;;5040921;28;20052;-86
2021/03/08 05:59:06;;;;;;;27.33;14.70;;;;;;;;;;5036061;28;20045;-86
2021/03/08 06:01:53;;;;;;;29.20;14.90;;;;;;;;;;5049808;28;20053;-87
2021/03/08 06:04:40;;;;;;;25.60;15.05;;;;;;;;;;5036639;28;20307;-86
2021/03/08 06:07:18;;;;;;;29.75;16.60;;;;;;;;;;5038522;28;20041;-86
2021/03/08 06:09:55;;;;;;;28.67;15.82;;;;;;;;;;5059110;28;20037;-88
2021/03/08 06:12:26;;;;;;;26.02;14.55;;;;;;;;;;5036066;28;20501;-86
2021/03/08 06:14:57;;;;;;;27.48;13.50;;;;;;;;;;5047830;28;20049;-88
2021/03/08 06:17:24;;;;;;;24.25;14.05;;;;;;;;;;5040476;28;20053;-86
2021/03/08 06:19:57;;;;;;;45.35;22.10;;;;;;;;;;5048167;28;20083;-88
2021/03/08 06:22:24;;;;;;;33.47;19.35;;;;;;;;;;5069203;28;20591;-86
2021/03/08 06:24:50;;;;;;;37.00;18.98;;;;;;;;;;5047561;28;20044;-85
2021/03/08 06:27:17;;;;;;;33.13;17.60;;;;;;;;;;5055233;28;20099;-87
2021/03/08 06:29:44;;;;;;;35.05;17.58;;;;;;;;;;5029190;28;20045;-87
2021/03/08 06:32:11;;;;;;;38.72;18.77;;;;;;;;;;5023160;28;20072;-87
2021/03/08 06:34:39;;;;;;;38.58;19.30;;;;;;;;;;5036386;28;20041;-87
2021/03/08 06:37:08;;;;;;;44.13;24.20;;;;;;;;;;5035662;28;20053;-87
2021/03/08 06:39:35;;;;;;;46.60;22.50;;;;;;;;;;5024523;28;20059;-86
2021/03/08 06:42:02;;;;;;;46.88;22.88;;;;;;;;;;5048397;28;20057;-85
2021/03/08 06:44:31;;;;;;;45.05;23.60;;;;;;;;;;5062776;28;20049;-87
2021/03/08 06:47:03;;;;;;;56.88;22.08;;;;;;;;;;5059737;28;20044;-86
2021/03/08 06:49:29;;;;;;;40.13;19.90;;;;;;;;;;5057378;28;20455;-87
2021/03/08 06:52:04;;;;;;;41.17;20.17;;;;;;;;;;5037464;28;20052;-88
2021/03/08 06:54:31;;;;;;;34.58;19.50;;;;;;;;;;5062512;28;20087;-87
2021/03/08 06:56:58;;;;;;;39.22;19.20;;;;;;;;;;5073532;28;20044;-88
2021/03/08 06:59:24;;;;;;;40.03;19.70;;;;;;;;;;5034185;28;20075;-89
2021/03/08 07:01:51;;;;;;;43.50;19.58;;;;;;;;;;5069338;28;20139;-88
2021/03/08 07:04:20;;;;;;;34.13;18.48;;;;;;;;;;5077078;28;20448;-86
2021/03/08 07:07:10;;;;;;;30.98;18.20;;;;;;;;;;5054450;28;20056;-87
2021/03/08 07:09:49;;;;;;;35.50;18.75;;;;;;;;;;5060184;28;20080;-87
2021/03/08 07:12:16;;;;;;;33.20;18.23;;;;;;;;;;5073289;28;20072;-87
2021/03/08 07:14:43;;;;;;;25.33;15.75;;;;;;;;;;5080076;28;20048;-88
2021/03/08 07:17:32;;;;;;;30.25;19.05;;;;;;;;;;5077833;28;20052;-87
2021/03/08 07:20:01;;;;;;;32.08;17.08;;;;;;;;;;5056172;28;20044;-88
2021/03/08 07:22:46;;;;;;;28.05;15.50;;;;;;;;;;5076864;28;20040;-88
2021/03/08 07:25:24;;;;;;;25.52;16.00;;;;;;;;;;5059569;28;20044;-88
2021/03/08 07:27:52;;;;;;;27.75;16.75;;;;;;;;;;5059903;28;20152;-86
2021/03/08 07:30:20;;;;;;;25.77;15.90;;;;;;;;;;5071403;28;20096;-88
2021/03/08 07:33:00;;;;;;;25.90;15.23;;;;;;;;;;5058297;28;20163;-86
2021/03/08 07:35:35;;;;;;;26.08;15.77;;;;;;;;;;5059814;28;20412;-85
2021/03/08 07:38:01;;;;;;;24.63;14.57;;;;;;;;;;5041635;28;20075;-87
2021/03/08 07:40:27;;;;;;;25.75;15.25;;;;;;;;;;5052049;28;20052;-86
2021/03/08 07:42:54;;;;;;;22.48;13.15;;;;;;;;;;5066248;28;20110;-86
2021/03/08 07:45:22;;;;;;;24.90;16.13;;;;;;;;;;5072093;28;20060;-87
2021/03/08 07:48:07;;;;;;;24.17;13.25;;;;;;;;;;5068683;28;20049;-87
2021/03/08 07:50:35;;;;;;;24.60;14.20;;;;;;;;;;5061796;28;20045;-86
2021/03/08 07:53:02;;;;;;;23.50;14.95;;;;;;;;;;5027963;28;20055;-87
2021/03/08 07:55:37;;;;;;;28.15;15.73;;;;;;;;;;5060936;28;20075;-87
2021/03/08 07:58:04;;;;;;;27.60;15.30;;;;;;;;;;5041937;28;20060;-87
2021/03/08 08:00:31;;;;;;;22.70;15.52;;;;;;;;;;5068103;28;20049;-86
2021/03/08 08:02:58;;;;;;;22.13;14.55;;;;;;;;;;5074948;28;20660;-87
2021/03/08 08:05:25;;;;;;;23.80;14.88;;;;;;;;;;5040587;28;20053;-90
2021/03/08 08:07:54;;;;;;;22.77;15.38;;;;;;;;;;5056008;28;20072;-87
2021/03/08 08:10:21;;;;;;;27.90;14.85;;;;;;;;;;5057395;28;20051;-87
2021/03/08 08:12:48;;;;;;;20.92;14.40;;;;;;;;;;5021623;28;20148;-87
2021/03/08 08:15:17;;;;;;;23.77;14.45;;;;;;;;;;5056675;28;20111;-87
2021/03/08 08:17:45;;;;;;;23.10;15.70;;;;;;;;;;5057470;28;20104;-88
2021/03/08 08:20:13;;;;;;;21.45;14.43;;;;;;;;;;5059073;28;20053;-87
2021/03/08 08:22:49;;;;;;;22.30;14.63;;;;;;;;;;5058123;28;20132;-89
2021/03/08 08:25:16;;;;;;;29.63;15.52;;;;;;;;;;5048696;28;20060;-87
2021/03/08 08:27:43;;;;;;;23.35;15.10;;;;;;;;;;5040967;28;20079;-87
2021/03/08 08:30:10;;;;;;;22.88;14.93;;;;;;;;;;5054918;28;20067;-84
2021/03/08 08:32:51;;;;;;;22.38;15.05;;;;;;;;;;5063959;28;20079;-85
2021/03/08 08:35:19;;;;;;;23.35;14.10;;;;;;;;;;5070098;28;20060;-87
2021/03/08 08:38:14;;;;;;;21.00;14.25;;;;;;;;;;5057012;28;20208;-85
2021/03/08 08:40:43;;;;;;;21.35;14.07;;;;;;;;;;5042889;28;20070;-87
2021/03/08 08:43:22;;;;;;;24.42;15.07;;;;;;;;;;5039899;28;20057;-85
2021/03/08 08:45:50;;;;;;;20.40;14.02;;;;;;;;;;5019828;28;20049;-86
2021/03/08 08:48:17;;;;;;;19.13;13.40;;;;;;;;;;5029974;28;20052;-86
2021/03/08 08:50:48;;;;;;;18.25;12.98;;;;;;;;;;5018726;28;20060;-88
2021/03/08 08:53:38;;;;;;;18.75;13.32;;;;;;;;;;5040586;28;20578;-87
2021/03/08 08:56:06;;;;;;;17.50;12.18;;;;;;;;;;5052890;28;20144;-89
2021/03/08 08:58:42;;;;;;;25.25;13.55;;;;;;;;;;5037421;28;20562;-86
2021/03/08 09:01:34;;;;;;;20.42;13.75;;;;;;;;;;5036635;28;20502;-86
2021/03/08 09:04:02;;;;;;;17.65;12.20;;;;;;;;;;5049511;28;20044;-85
2021/03/08 09:06:46;;;;;;;19.52;12.70;;;;;;;;;;5044405;28;20132;-86
2021/03/08 09:09:13;;;;;;;17.83;12.85;;;;;;;;;;5040052;28;20124;-86
2021/03/08 09:11:48;;;;;;;20.23;13.25;;;;;;;;;;5055862;28;20049;-87
2021/03/08 09:14:22;;;;;;;18.40;13.00;;;;;;;;;;5046868;28;20082;-87
2021/03/08 09:16:49;;;;;;;16.95;12.63;;;;;;;;;;5018328;28;20132;-85
2021/03/08 09:19:25;;;;;;;22.17;13.43;;;;;;;;;;5031106;28;20114;-86
2021/03/08 09:22:30;;;;;;;21.65;14.32;;;;;;;;;;5025374;28;20132;-85
2021/03/08 09:24:57;;;;;;;23.42;13.52;;;;;;;;;;5053469;28;20481;-85
2021/03/08 09:27:25;;;;;;;22.63;12.95;;;;;;;;;;5033284;28;20045;-85
2021/03/08 09:29:53;;;;;;;17.30;11.68;;;;;;;;;;5055999;28;20079;-87
2021/03/08 09:32:19;;;;;;;19.48;13.23;;;;;;;;;;5058064;28;20053;-87
2021/03/08 09:34:46;;;;;;;19.75;12.35;;;;;;;;;;5061525;28;20886;-86
2021/03/08 09:37:13;;;;;;;19.83;12.88;;;;;;;;;;5053332;28;20053;-85
2021/03/08 09:39:49;;;;;;;19.15;14.43;;;;;;;;;;5037231;28;20504;-85
2021/03/08 09:42:15;;;;;;;19.25;13.90;;;;;;;;;;5043226;28;20060;-86
2021/03/08 09:44:44;;;;;;;18.70;13.48;;;;;;;;;;5030764;28;20501;-88
2021/03/08 09:47:10;;;;;;;17.60;12.55;;;;;;;;;;5056711;28;20110;-86
2021/03/08 09:49:50;;;;;;;20.38;13.15;;;;;;;;;;5035799;28;20051;-86
2021/03/08 09:52:36;;;;;;;18.90;13.40;;;;;;;;;;5066138;28;20053;-87
2021/03/08 09:55:03;;;;;;;21.88;13.48;;;;;;;;;;5035435;28;20125;-87
2021/03/08 09:57:30;;;;;;;20.23;12.77;;;;;;;;;;5038377;28;20061;-85
2021/03/08 09:59:58;;;;;;;20.48;13.70;;;;;;;;;;5008004;28;20515;-85
2021/03/08 10:02:25;;;;;;;16.00;12.10;;;;;;;;;;5062700;28;20083;-87
2021/03/08 10:04:55;;;;;;;14.68;10.75;;;;;;;;;;5033282;28;20127;-87
2021/03/08 10:07:24;;;;;;;17.83;11.88;;;;;;;;;;5020784;28;20041;-87
2021/03/08 10:09:50;;;;;;;27.02;21.83;;;;;;;;;;5049881;28;20409;-87
2021/03/08 10:12:24;;;;;;;16.92;14.02;;;;;;;;;;5044664;28;20045;-87
2021/03/08 10:14:59;;;;;;;15.68;12.73;;;;;;;;;;5034383;28;20568;-87
2021/03/08 10:17:26;;;;;;;15.80;11.02;;;;;;;;;;5033114;28;20485;-88
2021/03/08 10:20:03;;;;;;;13.98;11.15;;;;;;;;;;5050906;28;20743;-87
2021/03/08 10:22:43;;;;;;;16.88;11.35;;;;;;;;;;5051847;28;20056;-86
2021/03/08 10:25:25;;;;;;;16.23;11.80;;;;;;;;;;5048528;28;20079;-86
2021/03/08 10:27:54;;;;;;;17.55;11.77;;;;;;;;;;5056121;28;20049;-87
2021/03/08 10:30:26;;;;;;;13.68;10.50;;;;;;;;;;5055385;28;20551;-87
2021/03/08 10:32:55;;;;;;;17.02;12.23;;;;;;;;;;5059174;28;20068;-85
2021/03/08 10:35:32;;;;;;;;;;;;;;;;;;;;;
2021/03/08 10:38:01;;;;;;;15.20;12.48;;;;;;;;;;5049262;28;20124;-88
2021/03/08 10:40:33;;;;;;;19.35;15.27;;;;;;;;;;5057647;28;20110;-88
2021/03/08 10:43:08;;;;;;;16.23;11.40;;;;;;;;;;5072397;28;20060;-86
2021/03/08 10:45:48;;;;;;;18.17;10.95;;;;;;;;;;5038868;28;20075;-86
2021/03/08 10:48:25;;;;;;;12.80;10.18;;;;;;;;;;5040096;28;20501;-86
2021/03/08 10:50:59;;;;;;;12.98;10.10;;;;;;;;;;5034700;28;20073;-85
2021/03/08 10:53:25;;;;;;;13.32;9.70;;;;;;;;;;5049071;28;20045;-86
2021/03/08 10:55:53;;;;;;;20.13;11.77;;;;;;;;;;5038445;28;20055;-87
2021/03/08 10:58:37;;;;;;;16.23;11.30;;;;;;;;;;5040063;28;20052;-85
2021/03/08 11:01:08;;;;;;;13.65;10.65;;;;;;;;;;5061296;28;20147;-87
2021/03/08 11:03:36;;;;;;;12.32;9.85;;;;;;;;;;5062066;28;20037;-84
2021/03/08 11:06:08;;;;;;;13.80;10.20;;;;;;;;;;5050489;28;20046;-86
2021/03/08 11:08:37;;;;;;;14.98;10.70;;;;;;;;;;5048264;28;20072;-84
2021/03/08 11:11:14;;;;;;;13.65;11.07;;;;;;;;;;5031240;28;20072;-86
2021/03/08 11:13:41;;;;;;;14.48;9.63;;;;;;;;;;5033223;28;20183;-85
2021/03/08 11:16:10;;;;;;;14.65;10.77;;;;;;;;;;5023947;28;20049;-83
2021/03/08 11:18:38;;;;;;;14.73;10.65;;;;;;;;;;5050155;28;20405;-84
2021/03/08 11:21:26;;;;;;;13.95;10.88;;;;;;;;;;5053971;28;20416;-85
2021/03/08 11:23:53;;;;;;;14.73;10.23;;;;;;;;;;5045178;28;20056;-86
2021/03/08 11:26:22;;;;;;;12.45;9.60;;;;;;;;;;5031795;28;20072;-85
2021/03/08 11:28:53;;;;;;;14.30;10.52;;;;;;;;;;5044067;28;20052;-85
2021/03/08 11:31:33;;;;;;;11.65;8.85;;;;;;;;;;5038116;28;20049;-86
2021/03/08 11:34:04;;;;;;;12.13;9.52;;;;;;;;;;5048740;28;20054;-86
2021/03/08 11:36:33;;;;;;;13.50;9.88;;;;;;;;;;5033423;28;20072;-86
2021/03/08 11:39:29;;;;;;;;;;;;;;;;;;;;;
2021/03/08 11:42:24;;;;;;;;;;;;;;;;;;;;;
2021/03/08 11:45:01;;;;;;;13.45;9.38;;;;;;;;;;5053580;28;20131;-86
2021/03/08 11:47:30;;;;;;;11.95;8.70;;;;;;;;;;5041872;28;20049;-86
2021/03/08 11:49:57;;;;;;;12.23;8.93;;;;;;;;;;5038767;28;20497;-86
2021/03/08 11:52:23;;;;;;;10.88;8.65;;;;;;;;;;5060364;28;20128;-85
2021/03/08 11:54:56;;;;;;;11.25;8.40;;;;;;;;;;5055246;28;20554;-86
2021/03/08 11:57:24;;;;;;;11.02;8.07;;;;;;;;;;5016606;28;20045;-85
2021/03/08 11:59:50;;;;;;;12.70;9.18;;;;;;;;;;5058665;28;20056;-87
2021/03/08 12:02:18;;;;;;;12.48;8.93;;;;;;;;;;5068045;28;20049;-86
2021/03/08 12:04:55;;;;;;;;;;;;;;;;;;;;;
2021/03/08 12:07:34;;;;;;;11.70;8.68;;;;;;;;;;5029796;28;20060;-86
2021/03/08 12:10:04;;;;;;;10.88;8.90;;;;;;;;;;5036729;28;20075;-85
2021/03/08 12:12:31;;;;;;;9.68;7.90;;;;;;;;;;5052768;28;20059;-87
2021/03/08 12:14:57;;;;;;;12.57;8.65;;;;;;;;;;5027156;28;20045;-87
2021/03/08 12:17:23;;;;;;;11.55;8.25;;;;;;;;;;5037015;28;20072;-86
2021/03/08 12:19:50;;;;;;;9.73;7.93;;;;;;;;;;5055514;28;20564;-86
2021/03/08 12:22:17;;;;;;;11.25;8.65;;;;;;;;;;5057952;28;20056;-85
2021/03/08 12:24:45;;;;;;;10.35;7.88;;;;;;;;;;5058518;28;20106;-86
2021/03/08 12:27:11;;;;;;;15.73;8.90;;;;;;;;;;5057160;28;20068;-86
2021/03/08 12:29:42;;;;;;;10.15;8.98;;;;;;;;;;5039952;28;20044;-86
2021/03/08 12:32:12;;;;;;;11.00;8.23;;;;;;;;;;5040294;28;20051;-88
2021/03/08 12:34:38;;;;;;;12.45;8.98;;;;;;;;;;5058044;28;20045;-87
2021/03/08 12:37:05;;;;;;;12.23;9.25;;;;;;;;;;5040261;28;20056;-87
2021/03/08 12:39:32;;;;;;;11.25;9.02;;;;;;;;;;5065443;28;20048;-85
2021/03/08 12:42:01;;;;;;;11.43;9.23;;;;;;;;;;5076534;28;20040;-84
2021/03/08 12:44:38;;;;;;;10.95;8.27;;;;;;;;;;5068975;28;20049;-88
2021/03/08 12:47:13;;;;;;;13.23;8.70;;;;;;;;;;5071062;28;20428;-86
2021/03/08 12:49:39;;;;;;;12.32;9.02;;;;;;;;;;5068658;28;20040;-86
2021/03/08 12:52:09;;;;;;;11.88;8.77;;;;;;;;;;5048453;28;20068;-85
2021/03/08 12:54:51;;;;;;;11.70;9.40;;;;;;;;;;5035047;28;20049;-86
2021/03/08 12:57:21;;;;;;;10.77;9.20;;;;;;;;;;5042988;28;20045;-86
2021/03/08 12:59:49;;;;;;;13.38;9.15;;;;;;;;;;5046380;28;20065;-85
2021/03/08 13:02:16;;;;;;;11.80;9.68;;;;;;;;;;5050609;28;20053;-86
2021/03/08 13:04:45;;;;;;;11.25;9.02;;;;;;;;;;5059080;28;20051;-87
2021/03/08 13:07:12;;;;;;;9.80;8.13;;;;;;;;;;5025007;28;20049;-85
2021/03/08 13:09:39;;;;;;;13.10;8.48;;;;;;;;;;5051260;28;20105;-86
2021/03/08 13:12:06;;;;;;;19.02;8.80;;;;;;;;;;5039471;28;20095;-85
2021/03/08 13:14:33;;;;;;;14.80;8.40;;;;;;;;;;5052248;28;20155;-85
2021/03/08 13:17:03;;;;;;;11.55;7.32;;;;;;;;;;5071009;28;20053;-86
2021/03/08 13:19:30;;;;;;;11.10;8.02;;;;;;;;;;5060025;28;20057;-85
2021/03/08 13:21:58;;;;;;;12.48;8.00;;;;;;;;;;5052583;28;20052;-87
2021/03/08 13:24:28;;;;;;;13.98;8.77;;;;;;;;;;5057813;28;20088;-85
2021/03/08 13:26:56;;;;;;;11.02;8.27;;;;;;;;;;5053963;28;20059;-86
2021/03/08 13:29:23;;;;;;;9.50;8.02;;;;;;;;;;5024022;28;20052;-87
2021/03/08 13:31:50;;;;;;;11.38;7.63;;;;;;;;;;5023443;28;20052;-86
2021/03/08 13:34:16;;;;;;;13.73;8.35;;;;;;;;;;5037292;28;20052;-87
2021/03/08 13:36:43;;;;;;;11.13;8.30;;;;;;;;;;5037573;28;20059;-86
2021/03/08 13:39:11;;;;;;;11.27;8.57;;;;;;;;;;5038510;28;20132;-85
2021/03/08 13:41:40;;;;;;;9.63;7.72;;;;;;;;;;5053409;28;20049;-85
2021/03/08 13:44:07;;;;;;;10.07;7.57;;;;;;;;;;5044689;28;20056;-84
2021/03/08 13:46:35;;;;;;;11.55;7.72;;;;;;;;;;5064555;28;20124;-86
2021/03/08 13:49:02;;;;;;;11.52;7.78;;;;;;;;;;5047484;28;20048;-87
2021/03/08 13:51:28;;;;;;;10.70;7.95;;;;;;;;;;5057587;28;20045;-86
2021/03/08 13:53:54;;;;;;;8.73;7.10;;;;;;;;;;5043225;28;20127;-86
2021/03/08 13:56:21;;;;;;;10.68;6.75;;;;;;;;;;5029366;28;20061;-86
2021/03/08 13:59:30;;;;;;;;;;;;;;;;;;;;;
2021/03/08 14:02:15;;;;;;;9.93;7.03;;;;;;;;;;4981420;28;20069;-87
2021/03/08 14:04:45;;;;;;;9.10;7.10;;;;;;;;;;5050785;28;20048;-88
2021/03/08 14:07:23;;;;;;;9.23;6.47;;;;;;;;;;5056870;28;20528;-89
2021/03/08 14:09:52;;;;;;;41.25;21.52;;;;;;;;;;5018658;28;20041;-88
2021/03/08 14:12:18;;;;;;;13.38;8.65;;;;;;;;;;5078128;28;20048;-88
2021/03/08 14:14:51;;;;;;;15.52;9.13;;;;;;;;;;5049952;28;20087;-89
2021/03/08 14:17:27;;;;;;;11.43;8.60;;;;;;;;;;5073090;28;20668;-88
2021/03/08 14:19:59;;;;;;;22.85;13.15;;;;;;;;;;5051488;28;20048;-87
2021/03/08 14:22:27;;;;;;;12.88;8.68;;;;;;;;;;5068757;28;20049;-88
2021/03/08 14:24:53;;;;;;;17.00;10.07;;;;;;;;;;5041129;28;20123;-84
2021/03/08 14:27:19;;;;;;;12.85;8.85;;;;;;;;;;5039846;28;20482;-84
2021/03/08 14:29:48;;;;;;;10.07;7.50;;;;;;;;;;5067027;28;20189;-84
2021/03/08 14:32:16;;;;;;;14.50;8.45;;;;;;;;;;5058703;28;20107;-85
2021/03/08 14:35:00;;;;;;;;;;;;;;;;;;;;;
2021/03/08 14:37:31;;;;;;;14.23;9.73;;;;;;;;;;5041811;28;20049;-86
2021/03/08 14:40:04;;;;;;;11.00;7.85;;;;;;;;;;5042682;28;20049;-87
2021/03/08 14:42:40;;;;;;;;;;;;;;;;;;;;;
2021/03/08 14:45:10;;;;;;;14.90;8.18;;;;;;;;;;5043426;28;20060;-87